createdAt,value
2022-11-25T00:01:30.689Z,1.70
2022-11-25T00:03:04.812Z,1.70
2022-11-25T00:04:39.191Z,1.80
2022-11-25T00:06:13.452Z,1.80
2022-11-25T00:07:46.587Z,1.80
2022-11-25T00:09:21.289Z,1.80
2022-11-25T00:10:53.352Z,1.80
2022-11-25T00:12:26.447Z,1.80
2022-11-25T00:13:59.842Z,1.90
2022-11-25T00:15:31.954Z,1.90
2022-11-25T00:17:05.110Z,2.00
2022-11-25T00:18:38.797Z,2.10
2022-11-25T00:20:12.305Z,2.10
2022-11-25T00:21:45.387Z,2.00
2022-11-25T00:23:18.468Z,2.10
2022-11-25T00:24:52.922Z,2.30
2022-11-25T00:26:27.451Z,2.40
2022-11-25T00:28:00.676Z,2.50
2022-11-25T00:29:34.882Z,2.40
2022-11-25T00:31:08.431Z,2.50
2022-11-25T00:32:41.474Z,2.60
2022-11-25T00:34:15.996Z,2.60
2022-11-25T00:35:49.263Z,2.80
2022-11-25T00:37:22.337Z,2.90
2022-11-25T00:38:56.502Z,2.90
2022-11-25T00:40:30.925Z,3.00
2022-11-25T00:42:17.978Z,3.00
2022-11-25T00:44:08.528Z,3.30
2022-11-25T00:45:41.853Z,3.40
2022-11-25T00:47:17.134Z,3.50
2022-11-25T00:48:50.231Z,3.70
2022-11-25T00:50:23.289Z,3.80
2022-11-25T00:51:55.854Z,3.80
2022-11-25T00:53:28.911Z,3.80
2022-11-25T00:55:02.066Z,3.80
2022-11-25T00:56:35.704Z,3.80
2022-11-25T00:58:08.761Z,3.80
2022-11-25T00:59:42.138Z,3.90
2022-11-25T01:01:14.302Z,3.90
2022-11-25T01:02:49.108Z,4.00
2022-11-25T01:04:22.357Z,4.00
2022-11-25T01:05:54.418Z,4.10
2022-11-25T01:07:27.715Z,4.10
2022-11-25T01:09:02.302Z,4.10
2022-11-25T01:10:35.398Z,4.20
2022-11-25T01:12:09.966Z,4.20
2022-11-25T01:13:42.344Z,4.10
2022-11-25T01:15:15.582Z,4.10
2022-11-25T01:16:48.784Z,4.10
2022-11-25T01:18:20.893Z,4.10
2022-11-25T01:19:53.988Z,4.10
2022-11-25T01:21:28.455Z,4.10
2022-11-25T01:23:01.495Z,4.10
2022-11-25T01:24:34.538Z,4.00
2022-11-25T01:26:10.358Z,3.90
2022-11-25T01:27:44.788Z,3.80
2022-11-25T01:29:19.212Z,3.70
2022-11-25T01:31:01.036Z,3.60
2022-11-25T01:32:34.095Z,3.60
2022-11-25T01:34:09.213Z,3.70
2022-11-25T01:35:42.291Z,3.90
2022-11-25T01:37:15.361Z,4.00
2022-11-25T01:38:51.407Z,4.00
2022-11-25T01:40:24.485Z,4.00
2022-11-25T01:41:56.614Z,4.00
2022-11-25T01:43:31.283Z,4.00
2022-11-25T01:45:35.100Z,3.70
2022-11-25T01:47:15.775Z,3.50
2022-11-25T01:48:51.394Z,3.40
2022-11-25T01:50:26.959Z,3.30
2022-11-25T01:52:06.968Z,3.10
2022-11-25T01:53:40.048Z,3.10
2022-11-25T01:55:18.611Z,3.00
2022-11-25T01:56:55.888Z,3.00
2022-11-25T01:58:34.844Z,3.00
2022-11-25T02:00:09.618Z,2.90
2022-11-25T02:01:54.110Z,3.00
2022-11-25T02:03:31.893Z,3.00
2022-11-25T02:05:10.478Z,2.80
2022-11-25T02:06:47.992Z,2.70
2022-11-25T02:08:24.057Z,2.70
2022-11-25T02:09:57.702Z,2.70
2022-11-25T02:11:33.108Z,2.60
2022-11-25T02:13:06.319Z,2.60
2022-11-25T02:14:44.586Z,2.50
2022-11-25T02:16:17.827Z,2.60
2022-11-25T02:17:51.272Z,2.80
2022-11-25T02:19:28.754Z,2.90
2022-11-25T02:21:01.943Z,3.10
2022-11-25T02:22:50.849Z,3.20
2022-11-25T02:24:31.081Z,3.30
2022-11-25T02:26:06.539Z,3.40
2022-11-25T02:27:38.641Z,3.40
2022-11-25T02:29:12.116Z,3.30
2022-11-25T02:30:46.672Z,3.40
2022-11-25T02:32:21.945Z,3.40
2022-11-25T02:33:54.998Z,3.50
2022-11-25T02:35:30.387Z,3.50
2022-11-25T02:37:03.740Z,3.50
2022-11-25T02:38:40.479Z,3.60
2022-11-25T02:40:14.571Z,3.60
2022-11-25T02:41:54.009Z,3.70
2022-11-25T02:43:27.854Z,3.70
2022-11-25T02:44:59.962Z,3.70
2022-11-25T02:46:33.322Z,3.90
2022-11-25T02:48:07.617Z,3.90
2022-11-25T02:49:40.673Z,4.00
2022-11-25T02:51:15.490Z,4.00
2022-11-25T02:52:48.605Z,4.00
2022-11-25T02:54:21.742Z,4.10
2022-11-25T02:55:55.635Z,4.10
2022-11-25T02:57:30.259Z,4.00
2022-11-25T02:59:03.987Z,4.00
2022-11-25T03:00:37.782Z,4.00
2022-11-25T03:02:11.239Z,4.10
2022-11-25T03:03:44.964Z,4.00
2022-11-25T03:05:18.045Z,4.10
2022-11-25T03:06:51.112Z,4.00
2022-11-25T03:08:24.386Z,4.00
2022-11-25T03:09:57.412Z,4.00
2022-11-25T03:11:44.762Z,4.00
2022-11-25T03:13:19.421Z,4.00
2022-11-25T03:14:51.826Z,3.90
2022-11-25T03:16:25.077Z,4.00
2022-11-25T03:17:58.225Z,4.00
2022-11-25T03:19:30.521Z,4.00
2022-11-25T03:21:03.631Z,4.00
2022-11-25T03:22:36.790Z,4.00
2022-11-25T03:24:10.828Z,4.00
2022-11-25T03:25:43.905Z,4.00
2022-11-25T03:27:16.241Z,4.00
2022-11-25T03:28:50.646Z,3.90
2022-11-25T03:30:25.642Z,3.90
2022-11-25T03:32:04.310Z,3.80
2022-11-25T03:33:41.275Z,3.90
2022-11-25T03:35:15.256Z,3.90
2022-11-25T03:36:48.656Z,3.90
2022-11-25T03:38:21.971Z,3.90
2022-11-25T03:39:55.072Z,3.90
2022-11-25T03:41:27.202Z,3.90
2022-11-25T03:43:00.560Z,3.90
2022-11-25T03:44:34.934Z,3.90
2022-11-25T03:46:08.287Z,3.80
2022-11-25T03:47:42.167Z,3.80
2022-11-25T03:49:15.611Z,3.70
2022-11-25T03:50:49.713Z,3.80
2022-11-25T03:52:22.911Z,3.70
2022-11-25T03:53:55.303Z,3.70
2022-11-25T03:55:29.551Z,3.70
2022-11-25T03:57:01.745Z,3.80
2022-11-25T03:58:35.804Z,3.80
2022-11-25T04:00:12.995Z,3.90
2022-11-25T04:01:57.777Z,3.90
2022-11-25T04:03:31.421Z,3.90
2022-11-25T04:05:05.512Z,3.90
2022-11-25T04:06:39.303Z,3.80
2022-11-25T04:08:12.388Z,3.80
2022-11-25T04:09:45.847Z,3.80
2022-11-25T04:11:22.405Z,3.80
2022-11-25T04:13:00.554Z,3.80
2022-11-25T04:14:40.075Z,3.80
2022-11-25T04:16:23.924Z,3.80
2022-11-25T04:17:58.377Z,3.80
2022-11-25T04:19:31.801Z,3.80
2022-11-25T04:21:05.261Z,3.70
2022-11-25T04:22:39.350Z,3.60
2022-11-25T04:24:13.097Z,3.60
2022-11-25T04:25:46.383Z,3.50
2022-11-25T04:27:27.206Z,3.50
2022-11-25T04:29:00.785Z,3.50
2022-11-25T04:30:34.697Z,3.50
2022-11-25T04:32:10.542Z,3.50
2022-11-25T04:33:47.180Z,3.50
2022-11-25T04:35:24.689Z,3.50
2022-11-25T04:37:00.405Z,3.40
2022-11-25T04:38:34.727Z,3.40
2022-11-25T04:40:10.024Z,3.40
2022-11-25T04:41:43.280Z,3.30
2022-11-25T04:43:15.403Z,3.20
2022-11-25T04:45:20.910Z,3.20
2022-11-25T04:46:49.376Z,3.10
2022-11-25T04:48:23.966Z,3.10
2022-11-25T04:49:57.724Z,3.10
2022-11-25T04:51:31.703Z,3.00
2022-11-25T04:53:06.998Z,3.00
2022-11-25T04:54:40.096Z,3.00
2022-11-25T04:56:18.974Z,3.00
2022-11-25T04:57:53.221Z,3.00
2022-11-25T04:59:40.769Z,3.00
2022-11-25T05:01:14.661Z,3.00
2022-11-25T05:02:51.873Z,2.90
2022-11-25T05:04:27.397Z,2.80
2022-11-25T05:06:01.096Z,2.70
2022-11-25T05:07:35.138Z,2.60
2022-11-25T05:09:10.875Z,2.60
2022-11-25T05:10:45.554Z,2.60
2022-11-25T05:12:22.186Z,2.60
2022-11-25T05:13:55.488Z,2.50
2022-11-25T05:15:28.981Z,2.40
2022-11-25T05:17:02.253Z,2.30
2022-11-25T05:18:35.460Z,2.30
2022-11-25T05:20:12.165Z,2.30
2022-11-25T05:21:44.397Z,2.20
2022-11-25T05:23:18.186Z,2.20
2022-11-25T05:24:51.605Z,2.30
2022-11-25T05:26:25.451Z,2.20
2022-11-25T05:28:02.180Z,2.10
2022-11-25T05:29:35.289Z,2.20
2022-11-25T05:31:08.778Z,2.20
2022-11-25T05:32:41.907Z,2.20
2022-11-25T05:34:16.859Z,2.30
2022-11-25T05:36:00.237Z,2.20
2022-11-25T05:37:38.569Z,2.20
2022-11-25T05:39:12.665Z,2.10
2022-11-25T05:41:20.947Z,1.90
2022-11-25T05:42:54.231Z,1.80
2022-11-25T05:44:27.854Z,1.80
2022-11-25T05:46:05.026Z,1.80
2022-11-25T05:47:38.838Z,1.70
2022-11-25T05:49:12.917Z,1.70
2022-11-25T05:50:45.180Z,1.70
2022-11-25T05:52:28.406Z,1.70
2022-11-25T05:54:04.549Z,1.70
2022-11-25T05:55:39.923Z,1.70
2022-11-25T05:57:20.744Z,1.60
2022-11-25T05:59:01.283Z,1.50
2022-11-25T06:00:47.244Z,1.30
2022-11-25T06:02:20.463Z,1.30
2022-11-25T06:03:53.901Z,1.30
2022-11-25T06:05:27.006Z,1.30
2022-11-25T06:07:00.264Z,1.50
2022-11-25T06:08:35.309Z,1.60
2022-11-25T06:10:09.450Z,1.50
2022-11-25T06:11:44.827Z,1.30
2022-11-25T06:13:18.073Z,1.20
2022-11-25T06:14:52.388Z,1.20
2022-11-25T06:16:26.618Z,1.20
2022-11-25T06:18:10.108Z,1.20
2022-11-25T06:19:44.049Z,1.00
2022-11-25T06:21:18.010Z,1.00
2022-11-25T06:22:51.100Z,0.90
2022-11-25T06:24:31.338Z,0.80
2022-11-25T06:26:12.404Z,0.70
2022-11-25T06:28:11.177Z,0.70
2022-11-25T06:29:39.601Z,0.70
2022-11-25T06:31:14.156Z,0.70
2022-11-25T06:32:56.790Z,0.70
2022-11-25T06:34:30.369Z,0.70
2022-11-25T06:36:05.443Z,0.70
2022-11-25T06:37:38.937Z,0.70
2022-11-25T06:39:12.083Z,0.70
2022-11-25T06:40:46.529Z,0.70
2022-11-25T06:42:19.623Z,0.70
2022-11-25T06:43:52.805Z,0.70
2022-11-25T06:45:25.843Z,0.70
2022-11-25T06:46:58.929Z,0.60
2022-11-25T06:48:32.055Z,0.60
2022-11-25T06:50:06.017Z,0.70
2022-11-25T06:51:39.091Z,0.70
2022-11-25T06:53:12.294Z,0.70
2022-11-25T06:54:45.928Z,0.70
2022-11-25T06:56:21.463Z,0.80
2022-11-25T06:58:08.478Z,0.90
2022-11-25T06:59:47.753Z,1.00
2022-11-25T07:01:22.986Z,1.00
2022-11-25T07:02:56.132Z,1.10
2022-11-25T07:04:29.404Z,1.20
2022-11-25T07:06:02.882Z,1.20
2022-11-25T07:07:35.995Z,1.20
2022-11-25T07:09:09.411Z,1.20
2022-11-25T07:10:42.544Z,1.20
2022-11-25T07:12:17.031Z,1.30
2022-11-25T07:13:53.815Z,1.30
2022-11-25T07:15:26.855Z,1.50
2022-11-25T07:16:59.957Z,1.50
2022-11-25T07:18:34.406Z,1.60
2022-11-25T07:20:08.975Z,1.60
2022-11-25T07:21:43.399Z,1.70
2022-11-25T07:23:16.493Z,1.80
2022-11-25T07:24:49.580Z,1.90
2022-11-25T07:26:24.831Z,1.90
2022-11-25T07:27:59.789Z,2.00
2022-11-25T07:31:31.574Z,2.10
2022-11-25T07:33:06.050Z,2.10
2022-11-25T07:34:39.400Z,2.20
2022-11-25T07:36:13.885Z,2.20
2022-11-25T07:37:47.305Z,2.30
2022-11-25T07:39:22.807Z,2.40
2022-11-25T07:40:55.900Z,2.40
2022-11-25T07:42:28.970Z,2.40
2022-11-25T07:44:05.059Z,2.50
2022-11-25T07:45:49.506Z,2.50
2022-11-25T07:47:22.552Z,2.50
2022-11-25T07:48:57.032Z,2.50
2022-11-25T07:50:30.102Z,2.50
2022-11-25T07:52:04.599Z,2.50
2022-11-25T07:53:37.660Z,2.50
2022-11-25T07:55:11.258Z,2.60
2022-11-25T07:56:45.712Z,2.60
2022-11-25T07:58:18.890Z,2.70
2022-11-25T07:59:53.315Z,2.80
2022-11-25T08:01:26.604Z,2.90
2022-11-25T08:02:59.740Z,3.00
2022-11-25T08:04:32.905Z,3.00
2022-11-25T08:06:08.064Z,3.10
2022-11-25T08:07:41.163Z,3.10
2022-11-25T08:09:16.345Z,3.10
2022-11-25T08:10:49.407Z,3.20
2022-11-25T08:12:22.473Z,3.30
2022-11-25T08:13:56.484Z,3.40
2022-11-25T08:15:31.000Z,3.40
2022-11-25T08:17:06.049Z,3.40
2022-11-25T08:18:39.186Z,3.50
2022-11-25T08:20:12.865Z,3.50
2022-11-25T08:21:47.848Z,3.50
2022-11-25T08:23:20.946Z,3.60
2022-11-25T08:24:54.017Z,3.60
2022-11-25T08:26:30.225Z,3.60
2022-11-25T08:28:03.371Z,3.50
2022-11-25T08:29:36.620Z,3.40
2022-11-25T08:31:13.623Z,3.40
2022-11-25T08:32:46.752Z,3.40
2022-11-25T08:34:22.110Z,3.30
2022-11-25T08:35:57.361Z,3.40
2022-11-25T08:37:32.670Z,3.40
2022-11-25T08:39:28.831Z,3.40
2022-11-25T08:41:01.695Z,3.40
2022-11-25T08:42:34.871Z,3.50
2022-11-25T08:44:09.838Z,3.50
2022-11-25T08:45:43.178Z,3.50
2022-11-25T08:47:17.653Z,3.50
2022-11-25T08:48:51.050Z,3.60
2022-11-25T08:50:25.465Z,3.60
2022-11-25T08:51:58.607Z,3.60
2022-11-25T08:53:31.858Z,3.60
2022-11-25T08:55:05.657Z,3.60
2022-11-25T08:56:38.840Z,3.60
2022-11-25T08:58:13.185Z,3.70
2022-11-25T08:59:46.292Z,3.70
2022-11-25T09:01:20.741Z,3.80
2022-11-25T09:02:55.417Z,3.80
2022-11-25T09:04:28.624Z,3.90
2022-11-25T09:06:01.901Z,3.80
2022-11-25T09:07:35.110Z,3.90
2022-11-25T09:09:08.205Z,3.90
2022-11-25T09:10:41.897Z,3.90
2022-11-25T09:12:14.978Z,3.90
2022-11-25T09:13:48.207Z,3.90
2022-11-25T09:15:21.385Z,3.90
2022-11-25T09:16:56.611Z,4.00
2022-11-25T09:18:32.579Z,4.10
2022-11-25T09:20:06.850Z,4.30
2022-11-25T09:21:39.967Z,4.60
2022-11-25T09:23:13.033Z,4.70
2022-11-25T09:24:46.296Z,4.90
2022-11-25T09:26:23.840Z,5.10
2022-11-25T09:27:58.050Z,5.30
2022-11-25T09:29:31.240Z,5.50
2022-11-25T09:31:08.889Z,5.60
2022-11-25T09:32:42.068Z,5.50
2022-11-25T09:34:16.576Z,5.30
2022-11-25T09:35:50.324Z,5.20
2022-11-25T09:37:23.401Z,5.10
2022-11-25T09:38:56.875Z,5.10
2022-11-25T09:40:36.957Z,5.20
2022-11-25T09:42:43.319Z,5.30
2022-11-25T09:44:44.548Z,5.30
2022-11-25T09:46:46.004Z,5.50
2022-11-25T09:48:47.425Z,6.00
2022-11-25T09:50:37.370Z,6.50
2022-11-25T09:52:19.995Z,6.80
2022-11-25T09:53:55.069Z,7.00
2022-11-25T09:55:34.908Z,7.40
2022-11-25T09:57:21.467Z,7.50
2022-11-25T09:58:59.515Z,7.70
2022-11-25T10:00:39.094Z,8.00
2022-11-25T10:02:17.075Z,8.00
2022-11-25T10:03:54.631Z,8.30
2022-11-25T10:05:32.304Z,8.50
2022-11-25T10:07:09.976Z,8.80
2022-11-25T10:08:45.614Z,8.90
2022-11-25T10:10:23.890Z,8.90
2022-11-25T10:12:01.971Z,9.10
2022-11-25T10:13:43.196Z,9.30
2022-11-25T10:15:22.245Z,9.40
2022-11-25T10:17:04.848Z,9.40
2022-11-25T10:18:43.294Z,9.40
2022-11-25T10:20:21.658Z,9.70
2022-11-25T10:21:56.098Z,9.70
2022-11-25T10:23:34.972Z,9.90
2022-11-25T10:25:15.442Z,10.00
2022-11-25T10:26:57.508Z,10.10
2022-11-25T10:28:32.816Z,10.00
2022-11-25T10:30:14.602Z,9.90
2022-11-25T10:31:47.737Z,9.90
2022-11-25T10:33:22.791Z,10.10
2022-11-25T10:35:00.381Z,10.00
2022-11-25T10:36:35.928Z,10.10
2022-11-25T10:38:20.842Z,10.60
2022-11-25T10:39:53.921Z,11.30
2022-11-25T10:41:30.276Z,11.40
2022-11-25T10:43:11.026Z,11.40
2022-11-25T10:44:44.079Z,11.60
2022-11-25T10:46:49.660Z,11.60
2022-11-25T10:48:46.650Z,11.90
2022-11-25T10:50:28.817Z,12.30
2022-11-25T10:52:01.947Z,12.30
2022-11-25T10:53:36.418Z,12.40
2022-11-25T10:55:13.590Z,12.30
2022-11-25T10:56:50.792Z,12.10
2022-11-25T10:58:30.873Z,12.40
2022-11-25T11:00:12.770Z,12.80
2022-11-25T11:01:48.827Z,13.10
2022-11-25T11:03:26.225Z,12.80
2022-11-25T11:05:02.814Z,12.80
2022-11-25T11:06:38.966Z,13.00
2022-11-25T11:08:19.621Z,13.20
2022-11-25T11:09:54.162Z,13.10
2022-11-25T11:11:27.357Z,13.20
2022-11-25T11:13:02.349Z,13.10
2022-11-25T11:14:35.830Z,13.30
2022-11-25T11:16:26.842Z,13.30
2022-11-25T11:18:14.856Z,13.20
2022-11-25T11:20:02.478Z,13.10
2022-11-25T11:21:37.789Z,12.60
2022-11-25T11:23:14.071Z,12.30
2022-11-25T11:24:47.193Z,11.90
2022-11-25T11:26:26.272Z,11.80
2022-11-25T11:27:59.866Z,11.70
2022-11-25T11:29:33.164Z,11.80
2022-11-25T11:31:09.833Z,11.60
2022-11-25T11:32:47.799Z,11.70
2022-11-25T11:34:44.301Z,11.90
2022-11-25T11:36:38.550Z,11.70
2022-11-25T11:38:26.589Z,11.60
2022-11-25T11:40:16.110Z,11.60
2022-11-25T11:41:56.450Z,11.30
2022-11-25T11:43:42.297Z,11.30
2022-11-25T11:45:31.839Z,11.30
2022-11-25T11:47:24.395Z,11.20
2022-11-25T11:49:15.061Z,11.20
2022-11-25T11:50:50.129Z,11.30
2022-11-25T11:52:33.122Z,11.50
2022-11-25T11:54:10.882Z,11.50
2022-11-25T11:56:26.726Z,11.60
2022-11-25T11:58:01.341Z,11.60
2022-11-25T11:59:48.840Z,11.40
2022-11-25T12:01:40.176Z,11.10
2022-11-25T12:03:17.823Z,10.90
2022-11-25T12:05:00.751Z,11.00
2022-11-25T12:06:38.063Z,11.00
2022-11-25T12:08:14.897Z,10.50
2022-11-25T12:09:53.572Z,10.20
2022-11-25T12:11:31.050Z,9.70
2022-11-25T12:13:14.327Z,9.30
2022-11-25T12:14:51.614Z,8.90
2022-11-25T12:16:32.791Z,8.70
2022-11-25T12:18:16.078Z,8.50
2022-11-25T12:19:57.970Z,8.50
2022-11-25T12:21:45.258Z,8.70
2022-11-25T12:23:28.000Z,8.90
2022-11-25T12:25:08.956Z,9.00
2022-11-25T12:26:50.349Z,9.00
2022-11-25T12:28:30.583Z,8.90
2022-11-25T12:30:07.948Z,8.90
2022-11-25T12:31:45.375Z,8.70
2022-11-25T12:33:23.310Z,8.60
2022-11-25T12:35:02.643Z,8.50
2022-11-25T12:36:38.385Z,8.40
2022-11-25T12:38:24.704Z,8.40
2022-11-25T12:40:04.343Z,8.50
2022-11-25T12:41:43.278Z,8.50
2022-11-25T12:43:25.356Z,8.60
2022-11-25T12:45:05.979Z,8.80
2022-11-25T12:46:44.031Z,9.10
2022-11-25T12:48:21.315Z,9.20
2022-11-25T12:49:56.332Z,9.30
2022-11-25T12:51:45.440Z,9.40
2022-11-25T12:53:27.929Z,9.50
2022-11-25T12:55:14.778Z,9.30
2022-11-25T12:57:07.562Z,9.20
2022-11-25T12:58:50.938Z,9.10
2022-11-25T13:00:41.651Z,9.20
2022-11-25T13:02:35.780Z,9.20
2022-11-25T13:04:28.589Z,9.40
2022-11-25T13:06:17.331Z,9.40
2022-11-25T13:08:04.582Z,9.40
2022-11-25T13:09:54.528Z,9.50
2022-11-25T13:12:01.449Z,9.70
2022-11-25T13:13:48.276Z,9.80
2022-11-25T13:15:27.690Z,9.70
2022-11-25T13:17:02.044Z,9.70
2022-11-25T13:18:39.496Z,9.60
2022-11-25T13:20:52.085Z,9.70
2022-11-25T13:22:29.731Z,9.50
2022-11-25T13:24:02.872Z,9.20
2022-11-25T13:25:37.438Z,9.00
2022-11-25T13:27:31.292Z,8.80
2022-11-25T13:29:40.434Z,8.80
2022-11-25T13:31:23.392Z,8.80
2022-11-25T13:32:56.574Z,8.70
2022-11-25T13:34:31.357Z,8.60
2022-11-25T13:36:18.595Z,8.70
2022-11-25T13:37:52.541Z,8.60
2022-11-25T13:39:34.755Z,8.50
2022-11-25T13:41:24.885Z,8.40
2022-11-25T13:43:00.416Z,8.20
2022-11-25T13:44:36.221Z,8.20
2022-11-25T13:46:09.762Z,8.10
2022-11-25T13:47:49.165Z,8.10
2022-11-25T13:49:29.477Z,8.10
2022-11-25T13:51:18.446Z,8.00
2022-11-25T13:52:59.402Z,8.00
2022-11-25T13:54:40.362Z,8.00
2022-11-25T13:56:16.449Z,7.90
2022-11-25T13:58:00.727Z,7.90
2022-11-25T13:59:38.704Z,7.80
2022-11-25T14:01:29.417Z,7.70
2022-11-25T14:03:44.842Z,7.70
2022-11-25T14:05:55.377Z,7.60
2022-11-25T14:07:36.544Z,7.50
2022-11-25T14:09:21.320Z,7.50
2022-11-25T14:11:07.135Z,7.40
2022-11-25T14:12:58.354Z,7.40
2022-11-25T14:14:49.798Z,7.40
2022-11-25T14:16:40.615Z,7.30
2022-11-25T14:19:17.291Z,7.30
2022-11-25T14:20:49.144Z,7.20
2022-11-25T14:22:41.688Z,7.10
2022-11-25T14:24:25.222Z,7.00
2022-11-25T14:26:11.649Z,7.00
2022-11-25T14:27:52.819Z,6.90
2022-11-25T14:29:31.157Z,6.80
2022-11-25T14:31:10.029Z,6.80
2022-11-25T14:32:48.813Z,6.70
2022-11-25T14:34:25.388Z,6.70
2022-11-25T14:36:07.804Z,6.60
2022-11-25T14:37:44.938Z,6.50
2022-11-25T14:39:24.076Z,6.50
2022-11-25T14:41:01.653Z,6.50
2022-11-25T14:42:38.811Z,6.50
2022-11-25T14:44:16.958Z,6.40
2022-11-25T14:46:09.598Z,6.40
2022-11-25T14:47:42.707Z,6.40
2022-11-25T14:49:44.140Z,6.30
2022-11-25T14:51:13.752Z,6.30
2022-11-25T14:52:48.196Z,6.20
2022-11-25T14:54:22.344Z,6.20
2022-11-25T14:55:57.832Z,6.10
2022-11-25T14:57:36.132Z,6.10
2022-11-25T14:59:11.052Z,6.10
2022-11-25T15:00:51.849Z,6.10
2022-11-25T15:02:28.543Z,6.10
2022-11-25T15:04:04.961Z,6.00
2022-11-25T15:05:40.990Z,6.00
2022-11-25T15:07:26.318Z,6.00
2022-11-25T15:09:02.836Z,6.00
2022-11-25T15:10:41.257Z,5.90
2022-11-25T15:12:17.762Z,5.90
2022-11-25T15:13:54.777Z,5.90
2022-11-25T15:15:28.887Z,5.90
2022-11-25T15:17:07.613Z,5.90
2022-11-25T15:18:48.134Z,5.80
2022-11-25T15:20:21.356Z,5.80
2022-11-25T15:23:53.826Z,5.80
2022-11-25T15:25:26.940Z,5.70
2022-11-25T15:27:02.548Z,5.70
2022-11-25T15:28:37.026Z,5.70
2022-11-25T15:30:21.860Z,5.70
2022-11-25T15:31:55.913Z,5.60
2022-11-25T15:33:30.430Z,5.60
2022-11-25T15:35:04.520Z,5.60
2022-11-25T15:36:37.785Z,5.50
2022-11-25T15:38:20.556Z,5.50
2022-11-25T15:40:27.065Z,5.50
2022-11-25T15:42:08.970Z,5.50
2022-11-25T15:43:47.385Z,5.50
2022-11-25T15:45:22.836Z,5.50
2022-11-25T15:47:01.182Z,5.40
2022-11-25T15:48:38.486Z,5.40
2022-11-25T15:50:22.399Z,5.40
2022-11-25T15:52:00.242Z,5.40
2022-11-25T15:53:37.564Z,5.40
2022-11-25T15:55:25.718Z,5.40
2022-11-25T15:57:03.254Z,5.40
2022-11-25T15:58:37.800Z,5.40
2022-11-25T16:00:16.684Z,5.40
2022-11-25T16:01:49.871Z,5.40
2022-11-25T16:03:23.866Z,5.50
2022-11-25T16:05:16.085Z,5.50
2022-11-25T16:06:56.802Z,5.50
2022-11-25T16:08:36.007Z,5.50
2022-11-25T16:10:19.230Z,5.50
2022-11-25T16:11:52.356Z,5.50
2022-11-25T16:13:38.561Z,5.50
2022-11-25T16:15:17.932Z,5.40
2022-11-25T16:16:51.216Z,5.40
2022-11-25T16:18:39.657Z,5.40
2022-11-25T16:20:18.967Z,5.40
2022-11-25T16:21:56.068Z,5.40
2022-11-25T16:23:29.382Z,5.40
2022-11-25T16:25:03.067Z,5.40
2022-11-25T16:26:39.157Z,5.40
2022-11-25T16:28:20.262Z,5.40
2022-11-25T16:29:57.012Z,5.40
2022-11-25T16:31:30.218Z,5.40
2022-11-25T16:33:03.689Z,5.40
2022-11-25T16:34:37.056Z,5.40
2022-11-25T16:36:10.925Z,5.30
2022-11-25T16:37:48.470Z,5.40
2022-11-25T16:39:22.174Z,5.30
2022-11-25T16:40:55.365Z,5.30
2022-11-25T16:42:28.410Z,5.30
2022-11-25T16:44:04.766Z,5.30
2022-11-25T16:45:42.281Z,5.30
2022-11-25T16:47:15.471Z,5.30
2022-11-25T16:48:52.328Z,5.30
2022-11-25T16:50:25.712Z,5.30
2022-11-25T16:51:59.090Z,5.30
2022-11-25T16:53:32.188Z,5.30
2022-11-25T16:55:05.870Z,5.30
2022-11-25T16:56:41.232Z,5.30
2022-11-25T16:58:20.325Z,5.30
2022-11-25T16:59:58.778Z,5.20
2022-11-25T17:01:34.965Z,5.20
2022-11-25T17:03:12.615Z,5.20
2022-11-25T17:04:46.055Z,5.20
2022-11-25T17:06:22.389Z,5.20
2022-11-25T17:07:56.313Z,5.10
2022-11-25T17:09:29.499Z,5.10
2022-11-25T17:11:02.977Z,5.10
2022-11-25T17:12:38.542Z,5.10
2022-11-25T17:14:19.238Z,5.10
2022-11-25T17:15:52.833Z,5.00
2022-11-25T17:17:27.928Z,5.00
2022-11-25T17:19:01.756Z,5.00
2022-11-25T17:20:34.967Z,5.00
2022-11-25T17:22:17.041Z,5.00
2022-11-25T17:23:53.818Z,5.00
2022-11-25T17:25:35.254Z,5.00
2022-11-25T17:27:11.743Z,5.00
2022-11-25T17:28:45.603Z,5.00
2022-11-25T17:30:22.609Z,5.00
2022-11-25T17:31:58.585Z,5.00
2022-11-25T17:33:33.459Z,5.00
2022-11-25T17:35:17.606Z,5.00
2022-11-25T17:36:52.128Z,5.00
2022-11-25T17:38:25.485Z,4.90
2022-11-25T17:39:58.869Z,5.00
2022-11-25T17:41:39.537Z,5.00
2022-11-25T17:43:16.668Z,5.00
2022-11-25T17:44:53.072Z,5.00
2022-11-25T17:46:29.609Z,5.00
2022-11-25T17:48:02.714Z,5.00
2022-11-25T17:49:37.138Z,5.00
2022-11-25T17:51:10.954Z,5.00
2022-11-25T17:52:44.003Z,5.00
2022-11-25T17:54:17.941Z,5.00
2022-11-25T17:55:51.409Z,5.00
2022-11-25T17:57:29.136Z,5.10
2022-11-25T17:59:05.513Z,5.10
2022-11-25T18:00:40.057Z,5.10
2022-11-25T18:02:19.462Z,5.10
2022-11-25T18:03:53.983Z,5.10
2022-11-25T18:05:28.668Z,5.10
2022-11-25T18:07:02.151Z,5.10
2022-11-25T18:08:35.534Z,5.10
2022-11-25T18:10:10.159Z,5.10
2022-11-25T18:11:47.054Z,5.10
2022-11-25T18:13:20.183Z,5.10
2022-11-25T18:14:53.399Z,5.10
2022-11-25T18:16:26.542Z,5.10
2022-11-25T18:18:03.470Z,5.10
2022-11-25T18:19:36.769Z,5.10
2022-11-25T18:21:12.892Z,5.10
2022-11-25T18:22:46.675Z,5.10
2022-11-25T18:24:19.758Z,5.20
2022-11-25T18:25:53.413Z,5.20
2022-11-25T18:27:28.585Z,5.10
2022-11-25T18:29:02.650Z,5.10
2022-11-25T18:30:37.273Z,5.20
2022-11-25T18:32:11.709Z,5.20
2022-11-25T18:33:44.763Z,5.20
2022-11-25T18:35:20.188Z,5.20
2022-11-25T18:36:55.392Z,5.20
2022-11-25T18:38:28.827Z,5.20
2022-11-25T18:40:01.989Z,5.20
2022-11-25T18:41:35.264Z,5.20
2022-11-25T18:43:14.507Z,5.20
2022-11-25T18:44:48.303Z,5.20
2022-11-25T18:46:21.493Z,5.20
2022-11-25T18:47:55.134Z,5.20
2022-11-25T18:49:32.016Z,5.30
2022-11-25T18:51:05.248Z,5.30
2022-11-25T18:52:39.750Z,5.30
2022-11-25T18:54:12.808Z,5.30
2022-11-25T18:55:46.281Z,5.30
2022-11-25T18:57:19.574Z,5.30
2022-11-25T18:58:53.116Z,5.30
2022-11-25T19:00:33.068Z,5.30
2022-11-25T19:02:15.842Z,5.30
2022-11-25T19:03:49.540Z,5.30
2022-11-25T19:05:24.304Z,5.30
2022-11-25T19:06:57.364Z,5.30
2022-11-25T19:08:31.950Z,5.40
2022-11-25T19:10:10.514Z,5.30
2022-11-25T19:11:50.900Z,5.40
2022-11-25T19:13:29.479Z,5.30
2022-11-25T19:15:02.802Z,5.30
2022-11-25T19:16:36.428Z,5.30
2022-11-25T19:18:13.936Z,5.30
2022-11-25T19:19:47.132Z,5.40
2022-11-25T19:21:21.827Z,5.40
2022-11-25T19:23:00.336Z,5.30
2022-11-25T19:24:35.378Z,5.30
2022-11-25T19:26:15.884Z,5.30
2022-11-25T19:27:52.121Z,5.30
2022-11-25T19:29:40.276Z,5.30
2022-11-25T19:31:15.161Z,5.20
2022-11-25T19:32:51.056Z,5.20
2022-11-25T19:34:28.194Z,5.20
2022-11-25T19:36:01.330Z,5.20
2022-11-25T19:37:34.423Z,5.20
2022-11-25T19:39:16.297Z,5.20
2022-11-25T19:40:50.735Z,5.20
2022-11-25T19:42:24.689Z,5.20
2022-11-25T19:43:57.772Z,5.10
2022-11-25T19:45:31.839Z,5.20
2022-11-25T19:47:15.139Z,5.20
2022-11-25T19:48:48.822Z,5.20
2022-11-25T19:50:24.153Z,5.20
2022-11-25T19:51:57.279Z,5.20
2022-11-25T19:53:34.058Z,5.20
2022-11-25T19:55:15.161Z,5.30
2022-11-25T19:56:50.837Z,5.20
2022-11-25T19:58:23.980Z,5.30
2022-11-25T19:59:57.103Z,5.20
2022-11-25T20:01:34.482Z,5.30
2022-11-25T20:03:17.018Z,5.20
2022-11-25T20:04:52.030Z,5.20
2022-11-25T20:06:26.186Z,5.20
2022-11-25T20:07:59.521Z,5.20
2022-11-25T20:09:32.574Z,5.20
2022-11-25T20:11:06.577Z,5.20
2022-11-25T20:12:41.376Z,5.20
2022-11-25T20:14:14.451Z,5.20
2022-11-25T20:15:47.912Z,5.30
2022-11-25T20:17:25.666Z,5.30
2022-11-25T20:18:59.888Z,5.30
2022-11-25T20:20:35.843Z,5.30
2022-11-25T20:22:10.430Z,5.30
2022-11-25T20:23:44.657Z,5.30
2022-11-25T20:25:17.978Z,5.30
2022-11-25T20:26:51.577Z,5.30
2022-11-25T20:28:27.919Z,5.30
2022-11-25T20:30:01.025Z,5.30
2022-11-25T20:31:34.198Z,5.30
2022-11-25T20:33:07.334Z,5.30
2022-11-25T20:34:42.178Z,5.30
2022-11-25T20:36:18.952Z,5.30
2022-11-25T20:37:54.017Z,5.30
2022-11-25T20:39:27.286Z,5.30
2022-11-25T20:41:01.277Z,5.40
2022-11-25T20:42:34.511Z,5.40
2022-11-25T20:44:12.675Z,5.40
2022-11-25T20:45:45.768Z,5.40
2022-11-25T20:47:21.862Z,5.40
2022-11-25T20:48:57.859Z,5.40
2022-11-25T20:50:31.498Z,5.40
2022-11-25T20:52:05.549Z,5.40
2022-11-25T20:53:48.121Z,5.40
2022-11-25T20:55:23.828Z,5.40
2022-11-25T20:56:57.234Z,5.40
2022-11-25T20:58:31.967Z,5.40
2022-11-25T21:00:22.478Z,5.40
2022-11-25T21:01:55.787Z,5.40
2022-11-25T21:03:28.978Z,5.40
2022-11-25T21:05:02.136Z,5.40
2022-11-25T21:06:40.962Z,5.40
2022-11-25T21:08:16.549Z,5.40
2022-11-25T21:09:49.590Z,5.40
2022-11-25T21:11:23.929Z,5.40
2022-11-25T21:12:58.104Z,5.40
2022-11-25T21:14:31.634Z,5.40
2022-11-25T21:16:06.862Z,5.40
2022-11-25T21:17:39.917Z,5.40
2022-11-25T21:19:13.261Z,5.40
2022-11-25T21:20:47.087Z,5.40
2022-11-25T21:22:21.977Z,5.40
2022-11-25T21:23:55.247Z,5.40
2022-11-25T21:25:28.367Z,5.40
2022-11-25T21:27:06.898Z,5.50
2022-11-25T21:28:46.872Z,5.50
2022-11-25T21:30:21.181Z,5.50
2022-11-25T21:31:55.808Z,5.50
2022-11-25T21:33:28.923Z,5.50
2022-11-25T21:35:03.984Z,5.50